Time;durP1;ratioP1;P1;durP2;ratioP2;P2;SDS_P1;SDS_P2;PMS_P1;PMS_P2;Temp;Humidity;BMP_temperature;BMP_pressure;BME280_temperature;BME280_humidity;BME280_pressure;Samples;Min_cycle;Max_cycle;Signal;HPM_P1;HPM_P2
2022/02/21 00:03:23;;;;;;;2.50;1.00;;;10.20;99.90;;;;;;20908313;28;20029;-74
2022/02/21 00:13:24;;;;;;;2.92;0.95;;;10.30;99.90;;;;;;20907800;28;20025;-75
2022/02/21 00:23:24;;;;;;;5.13;2.37;;;10.20;99.90;;;;;;20907247;28;20060;-75
2022/02/21 00:33:25;;;;;;;10.70;1.43;;;10.30;99.90;;;;;;20907064;28;20028;-74
2022/02/21 00:43:27;;;;;;;5.43;0.90;;;10.10;99.90;;;;;;20906579;28;20055;-74
2022/02/21 00:53:27;;;;;;;4.40;0.83;;;9.90;99.90;;;;;;20888286;28;20041;-75
2022/02/21 01:03:28;;;;;;;2.57;0.60;;;9.80;99.90;;;;;;20905823;28;20589;-75
2022/02/21 01:13:29;;;;;;;2.97;0.60;;;9.80;99.90;;;;;;20903542;28;20032;-75
2022/02/21 01:23:30;;;;;;;4.07;0.60;;;9.80;99.90;;;;;;20920393;28;20055;-74
2022/02/21 01:33:31;;;;;;;2.17;0.40;;;9.70;99.90;;;;;;20902139;28;20112;-75
2022/02/21 01:43:32;;;;;;;3.53;0.90;;;9.80;99.90;;;;;;20919024;28;20044;-74
2022/02/21 01:53:33;;;;;;;2.45;0.77;;;9.50;99.90;;;;;;20918090;28;20037;-75
2022/02/21 02:03:34;;;;;;;5.03;2.37;;;9.00;99.90;;;;;;20917372;28;20029;-73
2022/02/21 02:13:35;;;;;;;1.33;0.77;;;8.70;99.90;;;;;;20916846;28;20025;-75
2022/02/21 02:23:35;;;;;;;1.57;0.80;;;8.60;99.90;;;;;;20881485;28;20116;-75
2022/02/21 02:33:37;;;;;;;3.60;0.80;;;8.80;99.90;;;;;;20897355;28;20161;-75
2022/02/21 02:43:39;;;;;;;;;;;8.70;99.90;;;;;;20896971;28;20033;-75
2022/02/21 02:53:40;;;;;;;0.30;0.30;;;8.80;99.90;;;;;;20913478;28;19919;-75
2022/02/21 03:03:40;;;;;;;0.27;0.27;;;8.80;99.90;;;;;;20912614;28;20387;-75
2022/02/21 03:13:41;;;;;;;1.10;0.40;;;8.90;99.90;;;;;;20912002;28;20418;-74
2022/02/21 03:23:42;;;;;;;0.43;0.20;;;9.00;99.90;;;;;;20911021;28;20112;-75
2022/02/21 03:33:43;;;;;;;1.80;0.20;;;9.00;99.90;;;;;;20909135;28;20031;-74
2022/02/21 03:43:44;;;;;;;0.30;0.20;;;9.30;99.90;;;;;;20925650;28;20087;-75
2022/02/21 03:53:45;;;;;;;0.20;0.20;;;9.30;99.90;;;;;;20906656;28;20075;-75
2022/02/21 04:03:45;;;;;;;0.53;0.23;;;9.20;99.90;;;;;;20895987;28;20041;-75
2022/02/21 04:13:46;;;;;;;0.20;0.20;;;9.40;99.90;;;;;;20921706;28;20052;-75
2022/02/21 04:23:47;;;;;;;0.37;0.17;;;9.50;99.90;;;;;;20906460;28;20068;-75
2022/02/21 04:33:48;;;;;;;0.77;0.43;;;9.40;99.90;;;;;;20906738;28;20035;-75
2022/02/21 04:43:49;;;;;;;0.70;0.40;;;9.10;99.90;;;;;;20897866;28;20061;-75
2022/02/21 04:53:50;;;;;;;;;;;8.90;99.90;;;;;;20940227;22;20111;-76
2022/02/21 05:03:51;;;;;;;0.30;0.20;;;8.70;99.90;;;;;;20860931;28;20298;-76
2022/02/21 05:13:52;;;;;;;0.10;0.10;;;8.70;99.90;;;;;;20922671;28;20049;-74
2022/02/21 05:23:53;;;;;;;0.27;0.27;;;8.70;99.90;;;;;;20921252;28;20051;-74
2022/02/21 05:33:54;;;;;;;0.57;0.30;;;7.60;99.90;;;;;;20920165;28;20025;-75
2022/02/21 05:43:55;;;;;;;0.20;0.20;;;6.70;99.90;;;;;;20919220;28;20114;-75
2022/02/21 05:53:55;;;;;;;0.20;0.20;;;6.10;99.90;;;;;;20976674;28;20036;-75
2022/02/21 06:03:56;;;;;;;1.10;0.50;;;5.60;99.90;;;;;;21001832;28;20095;-75
2022/02/21 06:13:57;;;;;;;4.65;0.73;;;4.90;99.90;;;;;;21000642;28;20349;-75
2022/02/21 06:23:58;;;;;;;;;;;4.20;99.90;;;;;;20999741;28;20078;-75
2022/02/21 06:33:59;;;;;;;2.50;1.05;;;3.80;99.90;;;;;;20996689;28;20274;-75
2022/02/21 06:44:00;;;;;;;3.55;1.10;;;3.50;99.90;;;;;;21000081;28;20509;-75
2022/02/21 06:54:01;;;;;;;9.63;1.10;;;3.40;99.90;;;;;;20981383;28;20059;-75
2022/02/21 07:04:02;;;;;;;4.75;1.27;;;3.40;99.90;;;;;;20980492;28;20071;-75
2022/02/21 07:14:03;;;;;;;10.13;1.60;;;3.50;99.90;;;;;;20998505;28;20044;-75
2022/02/21 07:24:04;;;;;;;6.85;1.48;;;3.70;99.90;;;;;;20962932;28;20483;-75
2022/02/21 07:34:06;;;;;;;12.30;1.30;;;3.80;99.90;;;;;;20978028;28;20107;-75
2022/02/21 07:44:07;;;;;;;4.22;1.23;;;3.90;99.90;;;;;;20995495;28;20059;-75
2022/02/21 07:54:08;;;;;;;9.82;1.83;;;3.90;99.90;;;;;;20994897;28;20028;-75
2022/02/21 08:04:09;;;;;;;9.40;1.90;;;4.00;99.90;;;;;;20994342;28;20518;-75
2022/02/21 08:14:10;;;;;;;9.88;1.65;;;4.10;99.90;;;;;;20993850;28;20021;-75
2022/02/21 08:24:11;;;;;;;12.90;2.17;;;4.80;99.90;;;;;;20976384;28;20082;-75
2022/02/21 08:34:12;;;;;;;;;;;4.90;99.90;;;;;;20976860;28;20033;-76
2022/02/21 08:44:12;;;;;;;14.93;2.10;;;5.00;99.90;;;;;;20975231;28;20278;-75
2022/02/21 08:54:13;;;;;;;28.42;6.80;;;4.90;99.90;;;;;;20992902;28;20521;-75
2022/02/21 09:04:15;;;;;;;16.60;2.63;;;5.20;99.90;;;;;;20993066;28;20024;-75
2022/02/21 09:14:17;;;;;;;16.67;2.25;;;5.80;99.90;;;;;;20990445;28;20119;-74
2022/02/21 09:24:17;;;;;;;24.50;3.08;;;5.80;99.90;;;;;;20990894;28;20474;-75
2022/02/21 09:34:18;;;;;;;12.50;2.70;;;5.70;99.90;;;;;;21004929;28;20052;-75
2022/02/21 09:44:19;;;;;;;10.93;1.97;;;5.70;99.90;;;;;;21004504;28;20020;-75
2022/02/21 09:54:21;;;;;;;13.53;2.53;;;5.70;99.90;;;;;;21006061;28;20282;-75
2022/02/21 10:04:23;;;;;;;23.27;2.20;;;5.70;99.90;;;;;;21005232;28;20072;-74
2022/02/21 10:14:29;;;;;;;10.50;2.30;;;5.70;99.90;;;;;;20985291;28;20036;-75
2022/02/21 10:24:48;;;;;;;13.57;3.05;;;5.70;99.90;;;;;;21001974;28;20433;-75
2022/02/21 10:34:50;;;;;;;9.48;1.52;;;5.90;99.90;;;;;;21001716;28;20032;-75
2022/02/21 10:44:51;;;;;;;17.08;2.30;;;5.90;99.90;;;;;;20997910;28;20383;-76
2022/02/21 10:54:53;;;;;;;15.37;1.90;;;6.10;99.90;;;;;;21052649;22;20036;-77
2022/02/21 11:04:56;;;;;;;12.13;1.90;;;6.10;99.90;;;;;;21079556;28;20285;-76
2022/02/21 11:14:57;;;;;;;16.55;2.22;;;6.30;99.90;;;;;;21078953;28;20050;-77
2022/02/21 11:25:27;;;;;;;9.00;1.98;;;7.40;99.90;;;;;;21075939;28;20081;-77
2022/02/21 11:35:28;;;;;;;10.55;1.98;;;8.00;99.90;;;;;;21078423;28;20432;-77
2022/02/21 11:45:30;;;;;;;15.13;2.80;;;8.30;99.90;;;;;;21058235;28;20031;-75
2022/02/21 11:55:35;;;;;;;;;;;8.20;99.90;;;;;;21057632;28;20051;-76
2022/02/21 12:05:36;;;;;;;12.70;2.70;;;8.40;99.90;;;;;;21075187;28;19912;-76
2022/02/21 12:15:57;;;;;;;18.92;2.60;;;7.10;99.90;;;;;;21074617;28;20113;-74
2022/02/21 12:25:58;;;;;;;13.23;3.17;;;5.00;99.90;;;;;;21073745;28;20047;-74
2022/02/21 12:36:04;;;;;;;9.60;2.00;;;5.70;99.90;;;;;;21074045;28;20031;-74
2022/02/21 12:46:05;;;;;;;4.80;1.23;;;5.70;99.90;;;;;;21055224;28;20081;-73
2022/02/21 12:56:06;;;;;;;;;;;4.90;99.90;;;;;;21054919;28;20123;-74
2022/02/21 13:06:11;;;;;;;8.17;1.53;;;5.00;99.90;;;;;;21065397;28;19919;-75
2022/02/21 13:16:12;;;;;;;7.97;1.60;;;6.00;99.90;;;;;;21070099;28;20268;-75
2022/02/21 13:26:13;;;;;;;17.67;2.03;;;7.20;99.90;;;;;;21087418;28;20056;-74
2022/02/21 13:36:14;;;;;;;10.60;1.53;;;7.30;99.90;;;;;;21086526;28;20028;-75
2022/02/21 13:46:15;;;;;;;8.00;1.70;;;7.70;99.90;;;;;;21064384;28;20048;-75
2022/02/21 13:56:21;;;;;;;9.70;1.83;;;6.90;99.90;;;;;;21028024;28;20027;-74
2022/02/21 14:06:30;;;;;;;5.55;1.63;;;6.90;99.90;;;;;;21057270;28;20088;-75
2022/02/21 14:16:32;;;;;;;13.88;3.00;;;6.70;99.90;;;;;;21063409;28;20031;-75
2022/02/21 14:26:34;;;;;;;6.20;1.10;;;6.60;99.90;;;;;;21062298;28;20056;-75
2022/02/21 14:36:36;;;;;;;7.78;1.50;;;6.10;99.90;;;;;;21061884;28;20452;-73
2022/02/21 14:46:38;;;;;;;5.55;1.25;;;5.80;99.90;;;;;;21051997;28;20168;-75
2022/02/21 14:56:39;;;;;;;10.45;1.48;;;5.90;99.90;;;;;;21057409;28;20060;-73
2022/02/21 15:06:40;;;;;;;13.10;1.73;;;6.20;99.90;;;;;;21042256;28;20043;-75
2022/02/21 15:16:41;;;;;;;8.97;1.20;;;6.10;99.90;;;;;;21058124;28;20278;-74
2022/02/21 15:26:42;;;;;;;11.13;2.10;;;5.80;99.90;;;;;;21057891;28;20028;-75
2022/02/21 15:36:44;;;;;;;8.30;1.30;;;5.50;99.90;;;;;;21056468;28;20035;-74
2022/02/21 15:46:45;;;;;;;10.55;2.05;;;5.10;99.90;;;;;;21055862;28;20032;-75
2022/02/21 15:56:46;;;;;;;7.57;1.30;;;4.60;99.90;;;;;;21055817;28;20059;-75
2022/02/21 16:06:47;;;;;;;7.88;1.33;;;4.40;99.90;;;;;;21036756;28;20028;-75
2022/02/21 16:16:48;;;;;;;6.32;1.42;;;4.40;99.90;;;;;;21054543;28;20394;-73
2022/02/21 16:26:49;;;;;;;;;;;4.30;99.90;;;;;;21053961;28;20088;-75
2022/02/21 16:36:50;;;;;;;11.02;1.63;;;4.40;99.90;;;;;;21059835;28;19957;-75
2022/02/21 16:46:51;;;;;;;;;;;4.40;99.90;;;;;;21058453;28;20402;-75
2022/02/21 16:56:51;;;;;;;5.50;1.50;;;4.40;99.90;;;;;;21031080;28;19959;-75
2022/02/21 17:06:52;;;;;;;;;;;4.40;99.90;;;;;;21045426;28;20028;-75
2022/02/21 17:16:53;;;;;;;4.17;1.13;;;4.40;99.90;;;;;;21067285;28;19924;-75
2022/02/21 17:26:54;;;;;;;;;;;4.50;99.90;;;;;;20967173;28;20509;-75
2022/02/21 17:36:56;;;;;;;11.95;1.63;;;4.40;99.90;;;;;;21066581;28;19923;-75
2022/02/21 17:46:58;;;;;;;6.93;1.52;;;4.10;99.90;;;;;;21064308;28;20040;-75
2022/02/21 17:56:59;;;;;;;9.35;1.85;;;4.10;99.90;;;;;;21064545;28;20028;-73
2022/02/21 18:07:00;;;;;;;;;;;4.20;99.90;;;;;;21064432;28;20043;-73
2022/02/21 18:17:01;;;;;;;10.05;1.92;;;4.50;99.90;;;;;;21062990;28;19922;-74
2022/02/21 18:27:07;;;;;;;;;;;4.50;99.90;;;;;;21069871;28;20036;-74
2022/02/21 18:37:09;;;;;;;11.63;1.52;;;4.30;99.90;;;;;;21078273;28;19908;-74
2022/02/21 18:47:10;;;;;;;12.80;2.38;;;4.30;99.90;;;;;;21080793;28;20028;-74
2022/02/21 18:57:11;;;;;;;;;;;4.30;99.90;;;;;;21012202;28;20032;-74
2022/02/21 19:07:12;;;;;;;10.75;1.80;;;4.70;99.90;;;;;;21061070;28;19915;-74
2022/02/21 19:17:12;;;;;;;;;;;4.80;99.90;;;;;;21079187;28;20441;-72
2022/02/21 19:27:13;;;;;;;14.07;2.80;;;4.80;99.90;;;;;;21077896;28;19916;-74
2022/02/21 19:37:15;;;;;;;;;;;4.80;99.90;;;;;;21077404;28;20024;-74
2022/02/21 19:47:16;;;;;;;7.20;2.17;;;4.80;99.90;;;;;;21058172;28;19951;-74
2022/02/21 19:57:16;;;;;;;12.95;2.33;;;4.80;99.90;;;;;;21075722;28;20024;-74
2022/02/21 20:07:18;;;;;;;16.17;2.38;;;4.90;99.90;;;;;;21040350;28;20533;-74
2022/02/21 20:17:19;;;;;;;15.23;2.17;;;4.90;99.90;;;;;;21074226;28;20024;-74
2022/02/21 20:27:20;;;;;;;;;;;4.90;99.90;;;;;;21066577;28;20375;-73
2022/02/21 20:37:20;;;;;;;4.25;1.05;;;4.70;99.90;;;;;;21047906;28;19986;-74
2022/02/21 20:47:21;;;;;;;;;;;4.50;99.90;;;;;;21070437;28;20038;-73
2022/02/21 20:57:22;;;;;;;5.30;1.27;;;4.50;99.90;;;;;;21104699;28;19981;-73
2022/02/21 21:07:23;;;;;;;2.03;0.80;;;4.60;99.90;;;;;;21034217;28;20451;-73
2022/02/21 21:17:24;;;;;;;;;;;4.60;99.90;;;;;;21051893;28;20119;-73
2022/02/21 21:27:25;;;;;;;11.95;2.53;;;4.40;99.90;;;;;;21059725;28;20467;-74
2022/02/21 21:37:25;;;;;;;;;;;4.40;99.90;;;;;;21067736;28;20020;-75
2022/02/21 21:47:26;;;;;;;22.55;3.63;;;4.40;99.90;;;;;;21061185;28;19912;-75
2022/02/21 21:57:27;;;;;;;;;;;4.60;99.90;;;;;;21017926;28;20031;-75
2022/02/21 22:07:28;;;;;;;16.90;2.60;;;4.60;99.90;;;;;;21032908;28;20305;-74
2022/02/21 22:17:29;;;;;;;;;;;4.60;99.90;;;;;;21000199;28;20368;-75
2022/02/21 22:27:30;;;;;;;13.60;2.40;;;4.70;99.90;;;;;;20998999;28;20440;-75
2022/02/21 22:37:30;;;;;;;;;;;4.50;99.90;;;;;;20998516;28;20419;-74
2022/02/21 22:47:32;;;;;;;19.17;4.45;;;4.40;99.90;;;;;;20996883;28;19950;-75
2022/02/21 22:57:34;;;;;;;9.95;2.40;;;4.10;99.90;;;;;;20978694;28;20033;-74
2022/02/21 23:18:09;;;;;;;33.13;7.63;;;3.90;99.90;;;;;;20950022;28;20047;-74
2022/02/21 23:28:10;;;;;;;11.95;3.58;;;4.00;99.90;;;;;;20994121;28;20028;-75
2022/02/21 23:38:11;;;;;;;17.65;3.75;;;3.90;99.90;;;;;;20975636;28;20127;-74
2022/02/21 23:48:12;;;;;;;;;;;3.90;99.90;;;;;;20992344;28;20098;-74
2022/02/21 23:58:13;;;;;;;20.98;4.72;;;4.00;99.90;;;;;;20992147;28;19908;-74
